sensor_id;sensor_type;location;lat;lon;timestamp;P1;durP1;ratioP1;P2;durP2;ratioP2
35592;SDS011;64447;52.140;5.602;2024-02-16T00:01:03;4.85;;;3.17;;
35592;SDS011;64447;52.140;5.602;2024-02-16T00:03:29;5.40;;;3.47;;
35592;SDS011;64447;52.140;5.602;2024-02-16T00:05:55;5.18;;;3.50;;
35592;SDS011;64447;52.140;5.602;2024-02-16T00:08:20;4.90;;;3.55;;
35592;SDS011;64447;52.140;5.602;2024-02-16T00:10:47;3.28;;;2.70;;
35592;SDS011;64447;52.140;5.602;2024-02-16T00:13:12;5.45;;;3.53;;
35592;SDS011;64447;52.140;5.602;2024-02-16T00:15:38;5.03;;;3.47;;
35592;SDS011;64447;52.140;5.602;2024-02-16T00:18:04;6.00;;;3.35;;
35592;SDS011;64447;52.140;5.602;2024-02-16T00:20:31;7.45;;;3.63;;
35592;SDS011;64447;52.140;5.602;2024-02-16T00:22:57;6.68;;;3.55;;
35592;SDS011;64447;52.140;5.602;2024-02-16T00:25:23;6.38;;;3.60;;
35592;SDS011;64447;52.140;5.602;2024-02-16T00:27:48;5.15;;;3.70;;
35592;SDS011;64447;52.140;5.602;2024-02-16T00:30:18;5.93;;;3.75;;
35592;SDS011;64447;52.140;5.602;2024-02-16T00:32:47;5.22;;;3.47;;
35592;SDS011;64447;52.140;5.602;2024-02-16T00:35:14;5.97;;;3.70;;
35592;SDS011;64447;52.140;5.602;2024-02-16T00:37:44;6.22;;;4.00;;
35592;SDS011;64447;52.140;5.602;2024-02-16T00:40:11;6.47;;;3.75;;
35592;SDS011;64447;52.140;5.602;2024-02-16T00:42:37;3.40;;;3.05;;
35592;SDS011;64447;52.140;5.602;2024-02-16T00:45:03;5.30;;;3.15;;
35592;SDS011;64447;52.140;5.602;2024-02-16T00:47:29;7.50;;;3.72;;
35592;SDS011;64447;52.140;5.602;2024-02-16T00:49:55;5.75;;;3.58;;
35592;SDS011;64447;52.140;5.602;2024-02-16T00:52:21;4.00;;;3.38;;
35592;SDS011;64447;52.140;5.602;2024-02-16T00:54:47;4.47;;;3.58;;
35592;SDS011;64447;52.140;5.602;2024-02-16T00:57:14;4.43;;;3.63;;
35592;SDS011;64447;52.140;5.602;2024-02-16T00:59:40;7.07;;;3.97;;
35592;SDS011;64447;52.140;5.602;2024-02-16T01:02:06;5.32;;;3.47;;
35592;SDS011;64447;52.140;5.602;2024-02-16T01:04:32;5.72;;;3.60;;
35592;SDS011;64447;52.140;5.602;2024-02-16T01:06:58;5.72;;;3.95;;
35592;SDS011;64447;52.140;5.602;2024-02-16T01:09:24;5.47;;;3.45;;
35592;SDS011;64447;52.140;5.602;2024-02-16T01:11:50;5.95;;;3.72;;
35592;SDS011;64447;52.140;5.602;2024-02-16T01:14:15;6.32;;;3.50;;
35592;SDS011;64447;52.140;5.602;2024-02-16T01:16:41;5.22;;;3.80;;
35592;SDS011;64447;52.140;5.602;2024-02-16T01:19:07;6.00;;;3.67;;
35592;SDS011;64447;52.140;5.602;2024-02-16T01:21:34;6.63;;;3.58;;
35592;SDS011;64447;52.140;5.602;2024-02-16T01:24:00;7.03;;;3.95;;
35592;SDS011;64447;52.140;5.602;2024-02-16T01:26:26;5.22;;;3.65;;
35592;SDS011;64447;52.140;5.602;2024-02-16T01:28:53;6.18;;;3.63;;
35592;SDS011;64447;52.140;5.602;2024-02-16T01:31:18;6.72;;;4.03;;
35592;SDS011;64447;52.140;5.602;2024-02-16T01:33:44;5.20;;;3.55;;
35592;SDS011;64447;52.140;5.602;2024-02-16T01:36:10;5.32;;;3.55;;
35592;SDS011;64447;52.140;5.602;2024-02-16T01:38:35;5.85;;;3.45;;
35592;SDS011;64447;52.140;5.602;2024-02-16T01:41:01;4.80;;;3.50;;
35592;SDS011;64447;52.140;5.602;2024-02-16T01:43:27;5.70;;;4.05;;
35592;SDS011;64447;52.140;5.602;2024-02-16T01:45:53;7.50;;;3.60;;
35592;SDS011;64447;52.140;5.602;2024-02-16T01:48:19;4.03;;;3.60;;
35592;SDS011;64447;52.140;5.602;2024-02-16T01:50:45;5.55;;;3.50;;
35592;SDS011;64447;52.140;5.602;2024-02-16T01:53:13;4.30;;;3.90;;
35592;SDS011;64447;52.140;5.602;2024-02-16T01:55:43;7.45;;;3.78;;
35592;SDS011;64447;52.140;5.602;2024-02-16T01:58:10;5.50;;;3.35;;
35592;SDS011;64447;52.140;5.602;2024-02-16T02:00:36;9.45;;;4.05;;
35592;SDS011;64447;52.140;5.602;2024-02-16T02:03:02;4.38;;;3.63;;
35592;SDS011;64447;52.140;5.602;2024-02-16T02:05:28;6.82;;;3.78;;
35592;SDS011;64447;52.140;5.602;2024-02-16T02:07:54;5.75;;;3.33;;
35592;SDS011;64447;52.140;5.602;2024-02-16T02:10:20;5.25;;;3.38;;
35592;SDS011;64447;52.140;5.602;2024-02-16T02:12:45;4.78;;;3.97;;
35592;SDS011;64447;52.140;5.602;2024-02-16T02:15:11;8.27;;;4.65;;
35592;SDS011;64447;52.140;5.602;2024-02-16T02:17:37;6.18;;;3.53;;
35592;SDS011;64447;52.140;5.602;2024-02-16T02:20:03;5.15;;;3.47;;
35592;SDS011;64447;52.140;5.602;2024-02-16T02:22:33;6.18;;;4.13;;
35592;SDS011;64447;52.140;5.602;2024-02-16T02:24:58;5.15;;;4.00;;
35592;SDS011;64447;52.140;5.602;2024-02-16T02:27:24;7.20;;;4.28;;
35592;SDS011;64447;52.140;5.602;2024-02-16T02:29:50;5.55;;;4.28;;
35592;SDS011;64447;52.140;5.602;2024-02-16T02:32:16;5.00;;;3.47;;
35592;SDS011;64447;52.140;5.602;2024-02-16T02:34:42;5.22;;;3.97;;
35592;SDS011;64447;52.140;5.602;2024-02-16T02:37:08;5.38;;;3.83;;
35592;SDS011;64447;52.140;5.602;2024-02-16T02:39:34;5.28;;;3.55;;
35592;SDS011;64447;52.140;5.602;2024-02-16T02:42:00;4.40;;;3.78;;
35592;SDS011;64447;52.140;5.602;2024-02-16T02:44:25;9.07;;;3.70;;
35592;SDS011;64447;52.140;5.602;2024-02-16T02:46:51;5.32;;;3.75;;
35592;SDS011;64447;52.140;5.602;2024-02-16T02:49:18;4.43;;;3.42;;
35592;SDS011;64447;52.140;5.602;2024-02-16T02:51:44;12.13;;;4.05;;
35592;SDS011;64447;52.140;5.602;2024-02-16T02:54:09;7.40;;;4.00;;
35592;SDS011;64447;52.140;5.602;2024-02-16T02:56:35;4.93;;;3.72;;
35592;SDS011;64447;52.140;5.602;2024-02-16T02:59:01;5.35;;;4.20;;
35592;SDS011;64447;52.140;5.602;2024-02-16T03:01:27;4.38;;;3.60;;
35592;SDS011;64447;52.140;5.602;2024-02-16T03:03:53;4.55;;;4.07;;
35592;SDS011;64447;52.140;5.602;2024-02-16T03:06:19;6.15;;;3.70;;
35592;SDS011;64447;52.140;5.602;2024-02-16T03:08:45;6.88;;;4.03;;
35592;SDS011;64447;52.140;5.602;2024-02-16T03:11:10;6.10;;;4.07;;
35592;SDS011;64447;52.140;5.602;2024-02-16T03:13:36;4.63;;;3.90;;
35592;SDS011;64447;52.140;5.602;2024-02-16T03:16:02;5.53;;;3.80;;
35592;SDS011;64447;52.140;5.602;2024-02-16T03:18:31;6.20;;;3.72;;
35592;SDS011;64447;52.140;5.602;2024-02-16T03:20:58;5.57;;;3.67;;
35592;SDS011;64447;52.140;5.602;2024-02-16T03:23:23;4.30;;;3.78;;
35592;SDS011;64447;52.140;5.602;2024-02-16T03:25:50;4.60;;;4.10;;
35592;SDS011;64447;52.140;5.602;2024-02-16T03:28:16;5.20;;;3.80;;
35592;SDS011;64447;52.140;5.602;2024-02-16T03:30:42;5.43;;;3.80;;
35592;SDS011;64447;52.140;5.602;2024-02-16T03:33:08;4.88;;;3.72;;
35592;SDS011;64447;52.140;5.602;2024-02-16T03:35:34;5.15;;;3.78;;
35592;SDS011;64447;52.140;5.602;2024-02-16T03:38:01;6.80;;;3.50;;
35592;SDS011;64447;52.140;5.602;2024-02-16T03:40:27;6.43;;;4.03;;
35592;SDS011;64447;52.140;5.602;2024-02-16T03:42:53;5.53;;;3.47;;
35592;SDS011;64447;52.140;5.602;2024-02-16T03:45:19;5.40;;;3.92;;
35592;SDS011;64447;52.140;5.602;2024-02-16T03:47:45;7.50;;;4.50;;
35592;SDS011;64447;52.140;5.602;2024-02-16T03:50:13;6.00;;;3.92;;
35592;SDS011;64447;52.140;5.602;2024-02-16T03:52:39;5.03;;;3.92;;
35592;SDS011;64447;52.140;5.602;2024-02-16T03:55:05;6.63;;;4.13;;
35592;SDS011;64447;52.140;5.602;2024-02-16T03:57:32;6.15;;;3.85;;
35592;SDS011;64447;52.140;5.602;2024-02-16T03:59:57;5.45;;;4.00;;
35592;SDS011;64447;52.140;5.602;2024-02-16T04:02:24;4.47;;;3.88;;
35592;SDS011;64447;52.140;5.602;2024-02-16T04:04:49;5.18;;;4.20;;
35592;SDS011;64447;52.140;5.602;2024-02-16T04:07:15;5.68;;;4.10;;
35592;SDS011;64447;52.140;5.602;2024-02-16T04:09:41;4.90;;;3.85;;
35592;SDS011;64447;52.140;5.602;2024-02-16T04:12:07;6.53;;;4.53;;
35592;SDS011;64447;52.140;5.602;2024-02-16T04:14:33;5.30;;;3.67;;
35592;SDS011;64447;52.140;5.602;2024-02-16T04:16:59;4.38;;;3.70;;
35592;SDS011;64447;52.140;5.602;2024-02-16T04:19:28;5.97;;;4.13;;
35592;SDS011;64447;52.140;5.602;2024-02-16T04:21:54;4.97;;;4.47;;
35592;SDS011;64447;52.140;5.602;2024-02-16T04:24:20;6.15;;;4.43;;
35592;SDS011;64447;52.140;5.602;2024-02-16T04:26:46;5.63;;;3.83;;
35592;SDS011;64447;52.140;5.602;2024-02-16T04:29:11;6.55;;;4.28;;
35592;SDS011;64447;52.140;5.602;2024-02-16T04:31:40;5.63;;;3.75;;
35592;SDS011;64447;52.140;5.602;2024-02-16T04:34:11;6.50;;;4.63;;
35592;SDS011;64447;52.140;5.602;2024-02-16T04:36:37;5.32;;;4.03;;
35592;SDS011;64447;52.140;5.602;2024-02-16T04:39:03;7.15;;;4.47;;
35592;SDS011;64447;52.140;5.602;2024-02-16T04:41:28;5.78;;;4.15;;
35592;SDS011;64447;52.140;5.602;2024-02-16T04:43:54;6.38;;;4.22;;
35592;SDS011;64447;52.140;5.602;2024-02-16T04:46:21;4.85;;;3.83;;
35592;SDS011;64447;52.140;5.602;2024-02-16T04:48:47;6.57;;;4.32;;
35592;SDS011;64447;52.140;5.602;2024-02-16T04:51:13;6.75;;;4.30;;
35592;SDS011;64447;52.140;5.602;2024-02-16T04:53:38;4.45;;;4.03;;
35592;SDS011;64447;52.140;5.602;2024-02-16T04:56:04;4.97;;;4.05;;
35592;SDS011;64447;52.140;5.602;2024-02-16T04:58:33;5.65;;;4.70;;
35592;SDS011;64447;52.140;5.602;2024-02-16T05:00:58;5.38;;;4.82;;
35592;SDS011;64447;52.140;5.602;2024-02-16T05:03:24;7.53;;;4.70;;
35592;SDS011;64447;52.140;5.602;2024-02-16T05:05:50;5.28;;;4.18;;
35592;SDS011;64447;52.140;5.602;2024-02-16T05:08:17;6.07;;;4.18;;
35592;SDS011;64447;52.140;5.602;2024-02-16T05:10:43;5.75;;;4.10;;
35592;SDS011;64447;52.140;5.602;2024-02-16T05:13:08;5.88;;;4.35;;
35592;SDS011;64447;52.140;5.602;2024-02-16T05:15:36;5.82;;;4.68;;
35592;SDS011;64447;52.140;5.602;2024-02-16T05:18:02;6.38;;;4.18;;
35592;SDS011;64447;52.140;5.602;2024-02-16T05:20:27;6.00;;;4.65;;
35592;SDS011;64447;52.140;5.602;2024-02-16T05:22:53;4.97;;;3.70;;
35592;SDS011;64447;52.140;5.602;2024-02-16T05:25:18;5.40;;;4.38;;
35592;SDS011;64447;52.140;5.602;2024-02-16T05:27:44;7.13;;;4.65;;
35592;SDS011;64447;52.140;5.602;2024-02-16T05:30:12;8.10;;;4.28;;
35592;SDS011;64447;52.140;5.602;2024-02-16T05:32:40;4.75;;;3.83;;
35592;SDS011;64447;52.140;5.602;2024-02-16T05:35:06;7.40;;;4.38;;
35592;SDS011;64447;52.140;5.602;2024-02-16T05:37:45;6.75;;;4.03;;
35592;SDS011;64447;52.140;5.602;2024-02-16T05:40:14;5.43;;;4.32;;
35592;SDS011;64447;52.140;5.602;2024-02-16T05:42:52;7.03;;;4.20;;
35592;SDS011;64447;52.140;5.602;2024-02-16T05:45:18;5.65;;;4.38;;
35592;SDS011;64447;52.140;5.602;2024-02-16T05:47:46;5.57;;;4.18;;
35592;SDS011;64447;52.140;5.602;2024-02-16T05:50:12;6.40;;;4.07;;
35592;SDS011;64447;52.140;5.602;2024-02-16T05:52:39;4.90;;;4.30;;
35592;SDS011;64447;52.140;5.602;2024-02-16T05:55:08;6.28;;;4.35;;
35592;SDS011;64447;52.140;5.602;2024-02-16T05:57:35;6.10;;;3.75;;
35592;SDS011;64447;52.140;5.602;2024-02-16T06:00:01;5.40;;;3.80;;
35592;SDS011;64447;52.140;5.602;2024-02-16T06:02:29;6.65;;;4.55;;
35592;SDS011;64447;52.140;5.602;2024-02-16T06:04:55;6.43;;;4.13;;
35592;SDS011;64447;52.140;5.602;2024-02-16T06:07:21;5.38;;;4.15;;
35592;SDS011;64447;52.140;5.602;2024-02-16T06:09:47;6.93;;;4.38;;
35592;SDS011;64447;52.140;5.602;2024-02-16T06:12:12;5.95;;;4.15;;
35592;SDS011;64447;52.140;5.602;2024-02-16T06:14:38;4.80;;;4.07;;
35592;SDS011;64447;52.140;5.602;2024-02-16T06:17:04;6.00;;;4.10;;
35592;SDS011;64447;52.140;5.602;2024-02-16T06:19:30;5.95;;;4.10;;
35592;SDS011;64447;52.140;5.602;2024-02-16T06:21:56;6.90;;;4.28;;
35592;SDS011;64447;52.140;5.602;2024-02-16T06:24:22;7.18;;;4.43;;
35592;SDS011;64447;52.140;5.602;2024-02-16T06:26:48;5.45;;;3.67;;
35592;SDS011;64447;52.140;5.602;2024-02-16T06:29:14;4.80;;;4.18;;
35592;SDS011;64447;52.140;5.602;2024-02-16T06:31:40;5.75;;;4.30;;
35592;SDS011;64447;52.140;5.602;2024-02-16T06:34:05;5.57;;;4.20;;
35592;SDS011;64447;52.140;5.602;2024-02-16T06:36:31;5.72;;;4.05;;
35592;SDS011;64447;52.140;5.602;2024-02-16T06:38:56;7.57;;;4.32;;
35592;SDS011;64447;52.140;5.602;2024-02-16T06:41:22;9.82;;;4.38;;
35592;SDS011;64447;52.140;5.602;2024-02-16T06:43:48;6.57;;;4.03;;
35592;SDS011;64447;52.140;5.602;2024-02-16T06:46:14;6.45;;;4.10;;
35592;SDS011;64447;52.140;5.602;2024-02-16T06:48:39;6.32;;;3.72;;
35592;SDS011;64447;52.140;5.602;2024-02-16T06:51:05;5.32;;;4.10;;
35592;SDS011;64447;52.140;5.602;2024-02-16T06:53:32;5.50;;;4.15;;
35592;SDS011;64447;52.140;5.602;2024-02-16T06:55:58;7.20;;;3.88;;
35592;SDS011;64447;52.140;5.602;2024-02-16T06:58:23;4.95;;;3.95;;
35592;SDS011;64447;52.140;5.602;2024-02-16T07:00:49;4.60;;;4.10;;
35592;SDS011;64447;52.140;5.602;2024-02-16T07:03:15;4.55;;;4.13;;
35592;SDS011;64447;52.140;5.602;2024-02-16T07:05:40;7.93;;;4.40;;
35592;SDS011;64447;52.140;5.602;2024-02-16T07:08:06;8.55;;;4.72;;
35592;SDS011;64447;52.140;5.602;2024-02-16T07:10:32;5.80;;;4.13;;
35592;SDS011;64447;52.140;5.602;2024-02-16T07:12:59;7.20;;;4.60;;
35592;SDS011;64447;52.140;5.602;2024-02-16T07:15:25;7.45;;;4.55;;
35592;SDS011;64447;52.140;5.602;2024-02-16T07:17:51;6.50;;;4.13;;
35592;SDS011;64447;52.140;5.602;2024-02-16T07:20:18;5.55;;;4.13;;
35592;SDS011;64447;52.140;5.602;2024-02-16T07:22:43;6.72;;;4.32;;
35592;SDS011;64447;52.140;5.602;2024-02-16T07:25:11;6.47;;;4.57;;
35592;SDS011;64447;52.140;5.602;2024-02-16T07:27:37;5.18;;;4.60;;
35592;SDS011;64447;52.140;5.602;2024-02-16T07:30:03;6.20;;;4.22;;
35592;SDS011;64447;52.140;5.602;2024-02-16T07:32:30;5.40;;;4.47;;
35592;SDS011;64447;52.140;5.602;2024-02-16T07:34:55;4.78;;;4.30;;
35592;SDS011;64447;52.140;5.602;2024-02-16T07:37:21;5.20;;;4.10;;
35592;SDS011;64447;52.140;5.602;2024-02-16T07:39:47;6.78;;;4.28;;
35592;SDS011;64447;52.140;5.602;2024-02-16T07:42:12;7.38;;;4.85;;
35592;SDS011;64447;52.140;5.602;2024-02-16T07:44:38;6.47;;;4.78;;
35592;SDS011;64447;52.140;5.602;2024-02-16T07:47:04;6.38;;;4.65;;
35592;SDS011;64447;52.140;5.602;2024-02-16T07:49:30;8.73;;;4.57;;
35592;SDS011;64447;52.140;5.602;2024-02-16T07:51:56;6.50;;;4.38;;
35592;SDS011;64447;52.140;5.602;2024-02-16T07:54:22;6.80;;;4.55;;
35592;SDS011;64447;52.140;5.602;2024-02-16T07:56:48;6.28;;;4.50;;
35592;SDS011;64447;52.140;5.602;2024-02-16T07:59:14;5.28;;;4.40;;
35592;SDS011;64447;52.140;5.602;2024-02-16T08:01:40;6.13;;;4.75;;
35592;SDS011;64447;52.140;5.602;2024-02-16T08:04:05;5.78;;;3.83;;
35592;SDS011;64447;52.140;5.602;2024-02-16T08:06:31;5.55;;;4.35;;
35592;SDS011;64447;52.140;5.602;2024-02-16T08:08:57;6.20;;;4.18;;
35592;SDS011;64447;52.140;5.602;2024-02-16T08:11:23;6.85;;;4.40;;
35592;SDS011;64447;52.140;5.602;2024-02-16T08:13:48;5.15;;;4.55;;
35592;SDS011;64447;52.140;5.602;2024-02-16T08:16:14;5.63;;;4.30;;
35592;SDS011;64447;52.140;5.602;2024-02-16T08:18:40;8.05;;;4.57;;
35592;SDS011;64447;52.140;5.602;2024-02-16T08:21:08;9.90;;;4.95;;
35592;SDS011;64447;52.140;5.602;2024-02-16T08:23:35;6.18;;;4.50;;
35592;SDS011;64447;52.140;5.602;2024-02-16T08:26:02;8.63;;;5.05;;
35592;SDS011;64447;52.140;5.602;2024-02-16T08:28:33;7.32;;;4.78;;
35592;SDS011;64447;52.140;5.602;2024-02-16T08:31:17;9.10;;;5.00;;
35592;SDS011;64447;52.140;5.602;2024-02-16T08:33:43;6.95;;;5.18;;
35592;SDS011;64447;52.140;5.602;2024-02-16T08:36:25;7.50;;;4.53;;
35592;SDS011;64447;52.140;5.602;2024-02-16T08:38:54;8.07;;;5.13;;
35592;SDS011;64447;52.140;5.602;2024-02-16T08:41:19;6.75;;;5.10;;
35592;SDS011;64447;52.140;5.602;2024-02-16T08:43:46;6.55;;;5.20;;
35592;SDS011;64447;52.140;5.602;2024-02-16T08:46:12;9.48;;;5.72;;
35592;SDS011;64447;52.140;5.602;2024-02-16T08:48:38;6.90;;;4.80;;
35592;SDS011;64447;52.140;5.602;2024-02-16T08:51:03;8.15;;;5.07;;
35592;SDS011;64447;52.140;5.602;2024-02-16T08:53:31;7.15;;;4.80;;
35592;SDS011;64447;52.140;5.602;2024-02-16T08:55:56;8.57;;;5.38;;
35592;SDS011;64447;52.140;5.602;2024-02-16T08:58:22;9.30;;;5.47;;
35592;SDS011;64447;52.140;5.602;2024-02-16T09:00:47;6.45;;;5.07;;
35592;SDS011;64447;52.140;5.602;2024-02-16T09:03:15;5.63;;;4.82;;
35592;SDS011;64447;52.140;5.602;2024-02-16T09:05:41;6.55;;;4.53;;
35592;SDS011;64447;52.140;5.602;2024-02-16T09:08:08;8.85;;;5.60;;
35592;SDS011;64447;52.140;5.602;2024-02-16T09:10:34;7.47;;;4.80;;
35592;SDS011;64447;52.140;5.602;2024-02-16T09:13:01;7.70;;;5.10;;
35592;SDS011;64447;52.140;5.602;2024-02-16T09:15:27;9.38;;;5.35;;
35592;SDS011;64447;52.140;5.602;2024-02-16T09:17:53;7.13;;;4.90;;
35592;SDS011;64447;52.140;5.602;2024-02-16T09:20:19;8.55;;;5.15;;
35592;SDS011;64447;52.140;5.602;2024-02-16T09:22:47;11.88;;;5.78;;
35592;SDS011;64447;52.140;5.602;2024-02-16T09:25:14;8.68;;;5.10;;
35592;SDS011;64447;52.140;5.602;2024-02-16T09:27:40;6.95;;;5.30;;
35592;SDS011;64447;52.140;5.602;2024-02-16T09:30:09;14.60;;;6.07;;
35592;SDS011;64447;52.140;5.602;2024-02-16T09:32:39;10.75;;;5.85;;
35592;SDS011;64447;52.140;5.602;2024-02-16T09:35:05;9.40;;;6.20;;
35592;SDS011;64447;52.140;5.602;2024-02-16T09:37:34;11.48;;;6.20;;
35592;SDS011;64447;52.140;5.602;2024-02-16T09:40:02;8.55;;;6.00;;
35592;SDS011;64447;52.140;5.602;2024-02-16T09:42:29;12.95;;;6.68;;
35592;SDS011;64447;52.140;5.602;2024-02-16T09:44:54;9.32;;;6.38;;
35592;SDS011;64447;52.140;5.602;2024-02-16T09:47:20;9.23;;;5.93;;
35592;SDS011;64447;52.140;5.602;2024-02-16T09:49:48;8.18;;;6.05;;
35592;SDS011;64447;52.140;5.602;2024-02-16T09:52:14;9.60;;;6.45;;
35592;SDS011;64447;52.140;5.602;2024-02-16T09:54:39;11.27;;;6.80;;
35592;SDS011;64447;52.140;5.602;2024-02-16T09:57:05;11.32;;;6.90;;
35592;SDS011;64447;52.140;5.602;2024-02-16T09:59:31;11.43;;;7.00;;
35592;SDS011;64447;52.140;5.602;2024-02-16T10:02:01;9.15;;;7.00;;
35592;SDS011;64447;52.140;5.602;2024-02-16T10:04:27;8.75;;;6.82;;
35592;SDS011;64447;52.140;5.602;2024-02-16T10:06:53;8.80;;;6.75;;
35592;SDS011;64447;52.140;5.602;2024-02-16T10:09:26;7.88;;;7.00;;
35592;SDS011;64447;52.140;5.602;2024-02-16T10:11:54;15.77;;;7.40;;
35592;SDS011;64447;52.140;5.602;2024-02-16T10:14:20;10.60;;;7.10;;
35592;SDS011;64447;52.140;5.602;2024-02-16T10:16:46;10.95;;;7.50;;
35592;SDS011;64447;52.140;5.602;2024-02-16T10:19:13;14.57;;;7.03;;
35592;SDS011;64447;52.140;5.602;2024-02-16T10:21:39;12.07;;;8.07;;
35592;SDS011;64447;52.140;5.602;2024-02-16T10:24:06;9.70;;;7.53;;
35592;SDS011;64447;52.140;5.602;2024-02-16T10:26:33;12.40;;;8.55;;
35592;SDS011;64447;52.140;5.602;2024-02-16T10:29:04;11.93;;;7.65;;
35592;SDS011;64447;52.140;5.602;2024-02-16T10:31:31;11.88;;;7.45;;
35592;SDS011;64447;52.140;5.602;2024-02-16T10:33:58;12.60;;;8.18;;
35592;SDS011;64447;52.140;5.602;2024-02-16T10:36:34;9.50;;;7.88;;
35592;SDS011;64447;52.140;5.602;2024-02-16T10:39:04;11.73;;;8.90;;
35592;SDS011;64447;52.140;5.602;2024-02-16T10:41:41;11.55;;;7.78;;
35592;SDS011;64447;52.140;5.602;2024-02-16T10:44:07;15.48;;;8.90;;
35592;SDS011;64447;52.140;5.602;2024-02-16T10:46:33;12.68;;;8.48;;
35592;SDS011;64447;52.140;5.602;2024-02-16T10:48:59;11.30;;;8.93;;
35592;SDS011;64447;52.140;5.602;2024-02-16T10:51:46;12.65;;;9.45;;
35592;SDS011;64447;52.140;5.602;2024-02-16T10:54:14;14.15;;;9.68;;
35592;SDS011;64447;52.140;5.602;2024-02-16T10:56:42;14.70;;;9.90;;
35592;SDS011;64447;52.140;5.602;2024-02-16T10:59:09;13.27;;;9.65;;
35592;SDS011;64447;52.140;5.602;2024-02-16T11:01:41;15.63;;;10.10;;
35592;SDS011;64447;52.140;5.602;2024-02-16T11:04:10;15.00;;;10.75;;
35592;SDS011;64447;52.140;5.602;2024-02-16T11:06:58;14.00;;;9.65;;
35592;SDS011;64447;52.140;5.602;2024-02-16T11:11:52;16.92;;;10.95;;
35592;SDS011;64447;52.140;5.602;2024-02-16T11:14:18;14.80;;;10.30;;
35592;SDS011;64447;52.140;5.602;2024-02-16T11:16:47;14.05;;;11.13;;
35592;SDS011;64447;52.140;5.602;2024-02-16T11:19:13;14.93;;;11.52;;
35592;SDS011;64447;52.140;5.602;2024-02-16T11:21:54;14.15;;;12.02;;
35592;SDS011;64447;52.140;5.602;2024-02-16T11:24:33;17.58;;;11.82;;
35592;SDS011;64447;52.140;5.602;2024-02-16T11:27:03;16.15;;;12.55;;
35592;SDS011;64447;52.140;5.602;2024-02-16T11:29:34;14.40;;;12.48;;
35592;SDS011;64447;52.140;5.602;2024-02-16T11:32:01;13.77;;;12.30;;
35592;SDS011;64447;52.140;5.602;2024-02-16T11:34:28;15.75;;;12.95;;
35592;SDS011;64447;52.140;5.602;2024-02-16T11:36:55;14.48;;;12.77;;
35592;SDS011;64447;52.140;5.602;2024-02-16T11:39:21;16.23;;;12.45;;
35592;SDS011;64447;52.140;5.602;2024-02-16T11:41:47;15.40;;;13.32;;
35592;SDS011;64447;52.140;5.602;2024-02-16T11:44:13;17.23;;;13.93;;
35592;SDS011;64447;52.140;5.602;2024-02-16T11:46:42;16.45;;;12.98;;
35592;SDS011;64447;52.140;5.602;2024-02-16T11:49:08;17.75;;;14.00;;
35592;SDS011;64447;52.140;5.602;2024-02-16T11:51:35;15.00;;;12.32;;
35592;SDS011;64447;52.140;5.602;2024-02-16T11:54:01;16.17;;;13.38;;
35592;SDS011;64447;52.140;5.602;2024-02-16T11:56:27;15.10;;;13.00;;
35592;SDS011;64447;52.140;5.602;2024-02-16T11:58:52;14.40;;;12.80;;
35592;SDS011;64447;52.140;5.602;2024-02-16T12:01:19;17.20;;;13.15;;
35592;SDS011;64447;52.140;5.602;2024-02-16T12:03:46;15.50;;;12.23;;
35592;SDS011;64447;52.140;5.602;2024-02-16T12:06:19;14.20;;;12.02;;
35592;SDS011;64447;52.140;5.602;2024-02-16T12:08:47;16.83;;;13.02;;
35592;SDS011;64447;52.140;5.602;2024-02-16T12:11:14;17.20;;;13.30;;
35592;SDS011;64447;52.140;5.602;2024-02-16T12:13:40;14.77;;;13.27;;
35592;SDS011;64447;52.140;5.602;2024-02-16T12:16:06;16.70;;;13.98;;
35592;SDS011;64447;52.140;5.602;2024-02-16T12:18:34;18.63;;;13.95;;
35592;SDS011;64447;52.140;5.602;2024-02-16T12:21:01;17.05;;;14.15;;
35592;SDS011;64447;52.140;5.602;2024-02-16T12:23:30;20.60;;;14.80;;
35592;SDS011;64447;52.140;5.602;2024-02-16T12:26:00;23.15;;;16.17;;
35592;SDS011;64447;52.140;5.602;2024-02-16T12:28:27;18.60;;;14.85;;
35592;SDS011;64447;52.140;5.602;2024-02-16T12:30:54;18.75;;;14.88;;
35592;SDS011;64447;52.140;5.602;2024-02-16T12:33:21;17.98;;;15.32;;
35592;SDS011;64447;52.140;5.602;2024-02-16T12:35:47;19.35;;;15.05;;
35592;SDS011;64447;52.140;5.602;2024-02-16T12:38:13;16.13;;;14.40;;
35592;SDS011;64447;52.140;5.602;2024-02-16T12:40:42;20.95;;;14.63;;
35592;SDS011;64447;52.140;5.602;2024-02-16T12:43:08;16.05;;;14.27;;
35592;SDS011;64447;52.140;5.602;2024-02-16T12:45:36;17.50;;;13.25;;
35592;SDS011;64447;52.140;5.602;2024-02-16T12:48:02;19.38;;;12.80;;
35592;SDS011;64447;52.140;5.602;2024-02-16T12:50:29;18.17;;;12.45;;
35592;SDS011;64447;52.140;5.602;2024-02-16T12:52:57;14.88;;;10.98;;
35592;SDS011;64447;52.140;5.602;2024-02-16T12:55:24;16.60;;;12.23;;
35592;SDS011;64447;52.140;5.602;2024-02-16T12:57:50;12.68;;;9.60;;
35592;SDS011;64447;52.140;5.602;2024-02-16T13:00:16;10.90;;;8.10;;
35592;SDS011;64447;52.140;5.602;2024-02-16T13:02:42;9.23;;;6.78;;
35592;SDS011;64447;52.140;5.602;2024-02-16T13:05:08;7.75;;;6.32;;
35592;SDS011;64447;52.140;5.602;2024-02-16T13:07:35;7.13;;;6.20;;
35592;SDS011;64447;52.140;5.602;2024-02-16T13:10:04;7.20;;;5.60;;
35592;SDS011;64447;52.140;5.602;2024-02-16T13:12:30;9.27;;;5.57;;
35592;SDS011;64447;52.140;5.602;2024-02-16T13:14:56;6.00;;;4.80;;
35592;SDS011;64447;52.140;5.602;2024-02-16T13:17:22;5.57;;;4.68;;
35592;SDS011;64447;52.140;5.602;2024-02-16T13:19:48;5.15;;;4.57;;
35592;SDS011;64447;52.140;5.602;2024-02-16T13:22:13;5.68;;;4.20;;
35592;SDS011;64447;52.140;5.602;2024-02-16T13:24:40;4.15;;;3.75;;
35592;SDS011;64447;52.140;5.602;2024-02-16T13:27:06;5.22;;;4.47;;
35592;SDS011;64447;52.140;5.602;2024-02-16T13:29:32;5.03;;;3.80;;
35592;SDS011;64447;52.140;5.602;2024-02-16T13:31:58;5.28;;;4.22;;
35592;SDS011;64447;52.140;5.602;2024-02-16T13:34:24;4.82;;;4.40;;
35592;SDS011;64447;52.140;5.602;2024-02-16T13:36:51;4.68;;;3.80;;
35592;SDS011;64447;52.140;5.602;2024-02-16T13:39:17;4.70;;;3.97;;
35592;SDS011;64447;52.140;5.602;2024-02-16T13:41:44;4.68;;;3.95;;
35592;SDS011;64447;52.140;5.602;2024-02-16T13:44:12;6.47;;;3.80;;
35592;SDS011;64447;52.140;5.602;2024-02-16T13:46:38;5.05;;;3.53;;
35592;SDS011;64447;52.140;5.602;2024-02-16T13:49:03;4.07;;;3.65;;
35592;SDS011;64447;52.140;5.602;2024-02-16T13:51:29;4.47;;;3.55;;
35592;SDS011;64447;52.140;5.602;2024-02-16T13:53:55;4.28;;;3.88;;
35592;SDS011;64447;52.140;5.602;2024-02-16T13:56:20;3.80;;;3.50;;
35592;SDS011;64447;52.140;5.602;2024-02-16T13:58:46;4.72;;;3.90;;
35592;SDS011;64447;52.140;5.602;2024-02-16T14:01:12;5.20;;;3.25;;
35592;SDS011;64447;52.140;5.602;2024-02-16T14:03:38;3.88;;;3.47;;
35592;SDS011;64447;52.140;5.602;2024-02-16T14:06:04;4.07;;;3.65;;
35592;SDS011;64447;52.140;5.602;2024-02-16T14:08:32;4.57;;;3.83;;
35592;SDS011;64447;52.140;5.602;2024-02-16T14:10:58;4.13;;;3.58;;
35592;SDS011;64447;52.140;5.602;2024-02-16T14:13:24;4.50;;;3.67;;
35592;SDS011;64447;52.140;5.602;2024-02-16T14:15:50;3.65;;;3.35;;
35592;SDS011;64447;52.140;5.602;2024-02-16T14:18:16;6.65;;;3.80;;
35592;SDS011;64447;52.140;5.602;2024-02-16T14:20:41;5.57;;;3.47;;
35592;SDS011;64447;52.140;5.602;2024-02-16T14:23:07;5.15;;;3.33;;
35592;SDS011;64447;52.140;5.602;2024-02-16T14:25:34;4.25;;;3.10;;
35592;SDS011;64447;52.140;5.602;2024-02-16T14:28:05;4.38;;;3.70;;
35592;SDS011;64447;52.140;5.602;2024-02-16T14:30:31;4.55;;;3.40;;
35592;SDS011;64447;52.140;5.602;2024-02-16T14:33:00;3.00;;;2.70;;
35592;SDS011;64447;52.140;5.602;2024-02-16T14:35:25;4.20;;;3.13;;
35592;SDS011;64447;52.140;5.602;2024-02-16T14:37:51;3.83;;;3.45;;
35592;SDS011;64447;52.140;5.602;2024-02-16T14:40:17;4.35;;;3.95;;
35592;SDS011;64447;52.140;5.602;2024-02-16T14:42:42;3.90;;;3.50;;